• Join FlightAware (Why Join?)
  • Login
  • US Flag GB Flag 
06:22 EDT


 

Airport Tracker/Info


-or-


 

Live Flight TrackerFlight Track Log ✈ EJA122 ✈ 16-Jul-2013 ✈ KDTW - KLUK

Flight Track Log - Related Links

Times and Time Zones

All times are in EDT time to prevent confusion due to time zone crossing. See the EJA122 flight status page for this flight to view local times or setup timezone preferences in your user account.

Time Position Orientation Groundspeed Altitude Reporting Facility
EDT Latitude Longitude Course Direction KTS MPH feet Rate Location/Type
12:57 42.2036 -83.3556 205° Southwest 175 201 1,400  Level Cleveland Center
12:58 42.1742 -83.3739 205° Southwest 205 236 2,800 2,340 Climbing Cleveland Center
12:59 42.1114 -83.3767 182° South 243 280 5,300 2,400 Climbing Cleveland Center
13:00 41.9939 -83.3267 162° South 298 343 9,300 2,400 Climbing Cleveland Center
13:01 41.9125 -83.3289 181° South 298 343 11,700 2,040 Climbing Cleveland Center
13:02 41.8394 -83.3342 183° South 298 343 13,400 1,320 Climbing Cleveland Center
13:03 41.7475 -83.3386 182° South 304 350 14,400 960 Climbing Cleveland Center
13:04 41.6494 -83.3428 182° South 337 388 15,400 960 Climbing Cleveland Center
13:05 41.5475 -83.3383 178° South 357 411 16,400 960 Climbing Cleveland Center
13:06 41.4506 -83.3786 197° South 363 418 17,400 840 Climbing Cleveland Center
13:08 41.2644 -83.4867 204° Southwest 378 435 19,000 840 Climbing Indianapolis Center
13:10 41.1667 -83.5414 203° Southwest 378 435 20,000 960 Climbing Indianapolis Center
13:11 41.0533 -83.6086 189° South 380 437 21,000 480 Climbing Indianapolis Center
13:12 40.9481 -83.6622 201° Southwest 394 453 21,000  Level Indianapolis Center
13:13 40.8378 -83.7033 196° South 406 467 21,000  Level Indianapolis Center
13:14 40.7247 -83.7481 197° South 418 481 21,000 -120 Level Indianapolis Center
13:15 40.6097 -83.7917 196° South 424 488 20,800 -1,320 Descending Indianapolis Center
13:15 40.5197 -83.8250 196° South 431 496 18,800 -2,220 Descending Indianapolis Center
13:16 40.4014 -83.8706 196° South 403 464 16,800 -2,160 Descending Indianapolis Center
13:17 40.2856 -83.9133 196° South 405 466 14,300 -2,520 Descending Indianapolis Center
13:19 40.1828 -83.9531 196° South 379 436 11,700 -2,100 Descending Indianapolis Center
13:20 40.0864 -83.9689 187° South 333 383 10,100 -780 Descending Indianapolis Center
13:21 39.9725 -83.9281 165° South 336 387 10,000  Descending Indianapolis Center
13:22 39.8958 -83.9000 164° South 331 381 10,100  Climbing Indianapolis Center
13:23 39.8144 -83.8722 165° South 329 379 10,000 -840 Descending Indianapolis Center
13:24 39.7367 -83.8506 168° South 266 306 8,600 -1,920 Descending Indianapolis Center
13:25 39.6703 -83.9044 212° Southwest 279 321 6,200 -1,080 Descending Indianapolis Center
13:26 39.5903 -83.9761 215° Southwest 263 303 6,000 -120 Descending Indianapolis Center
13:27 39.5458 -84.0328 225° Southwest 239 275 6,000  Level Indianapolis Center
13:28 39.5036 -84.0961 229° Southwest 231 266 6,000  Level Indianapolis Center
13:29 39.4603 -84.1572 227° Southwest 229 264 6,000  Level Indianapolis Center
13:30 39.4172 -84.2200 228° Southwest 230 265 6,000 -960 Level Indianapolis Center
13:31 39.3753 -84.2808 228° Southwest 229 264 4,100 -1,500 Descending Indianapolis Center
13:32 39.3206 -84.3081 201° Southwest 218 251 3,000 -540 Descending Indianapolis Center
13:33 39.2628 -84.3344 199° South 199 229 3,000 -180 Level Indianapolis Center
13:34 39.2181 -84.3572 202° Southwest 183 211 2,700 -240 Descending Indianapolis Center
13:35 39.1747 -84.3786 201° Southwest 182 209 2,600 -120 Descending Indianapolis Center